Flight Track Log - Related Links

Times and Time Zones

All times are in EST time to prevent confusion due to time zone crossing. See the D-ALPJ flight status page for this flight to view local times or setup timezone preferences in your user account.

Time Position Orientation Groundspeed Altitude Reporting Facility
EST Latitude Longitude Course Direction KTS MPH feet Rate Location/Type
Tue 03:50:51 PM 52.5066 13.4675 116° Southeast  Level Estimated
Tue 03:58:51 PM 52.0723 14.8902 117° Southeast  Level Estimated
Tue 04:06:51 PM 51.6211 16.2849 118° Southeast  Level Estimated
Tue 04:14:51 PM 51.1538 17.6517 119° Southeast  Level Estimated
Tue 04:22:51 PM 50.6708 18.9906 120° Southeast  Level Estimated
Tue 04:30:51 PM 50.1729 20.3019 121° Southeast  Level Estimated
Tue 04:38:51 PM 49.6605 21.5857 122° Southeast  Level Estimated
Tue 04:46:51 PM 49.1342 22.8424 123° Southeast  Level Estimated
Tue 04:54:51 PM 48.5945 24.0723 124° Southeast  Level Estimated
Tue 05:02:51 PM 48.0420 25.2760 125° Southeast  Level Estimated
Tue 05:10:51 PM 47.4772 26.4538 126° Southeast  Level Estimated
Tue 05:18:51 PM 46.9007 27.6064 127° Southeast  Level Estimated
Tue 05:26:51 PM 46.3127 28.7341 128° Southeast  Level Estimated
Tue 05:34:51 PM 45.7140 29.8377 128° Southeast  Level Estimated
Tue 05:42:51 PM 45.1048 30.9177 129° Southeast  Level Estimated
Tue 05:50:51 PM 44.4857 31.9747 130° Southeast  Level Estimated
Tue 05:58:51 PM 43.8571 33.0093 131° Southeast  Level Estimated
Tue 06:06:51 PM 43.2193 34.0222 131° Southeast  Level Estimated
Tue 06:14:51 PM 42.5727 35.0139 132° Southeast  Level Estimated
Tue 06:22:51 PM 41.9178 35.9852 133° Southeast  Level Estimated
Tue 06:30:51 PM 41.2549 36.9366 133° Southeast  Level Estimated
Tue 06:38:51 PM 40.5842 37.8688 134° Southeast  Level Estimated
Tue 06:46:51 PM 39.9063 38.7824 134° Southeast  Level Estimated
Tue 06:54:51 PM 39.2213 39.6780 135° Southeast  Level Estimated
Tue 07:02:51 PM 38.5296 40.5562 136° Southeast  Level Estimated
Tue 07:10:51 PM 37.8314 41.4176 136° Southeast  Level Estimated
Tue 07:18:51 PM 37.1271 42.2628 137° Southeast  Level Estimated
Tue 07:26:51 PM 36.4170 43.0923 137° Southeast  Level Estimated
Tue 07:34:51 PM 35.7011 43.9068 138° Southeast  Level Estimated
Tue 07:42:51 PM 34.9799 44.7067 138° Southeast  Level Estimated
Tue 07:50:51 PM 34.2536 45.4925 139° Southeast  Level Estimated
Tue 07:58:51 PM 33.5223 46.2649 139° Southeast  Level Estimated
Tue 08:06:51 PM 32.7863 47.0243 139° Southeast  Level Estimated
Tue 08:14:51 PM 32.0457 47.7712 140° Southeast  Level Estimated
Tue 08:22:51 PM 31.3009 48.5060 140° Southeast  Level Estimated
Tue 08:30:51 PM 30.5520 49.2293 141° Southeast  Level Estimated
Tue 08:38:51 PM 29.7991 49.9415 141° Southeast  Level Estimated
Tue 08:46:51 PM 29.0425 50.6431 141° Southeast  Level Estimated
Tue 08:54:51 PM 28.2822 51.3344 142° Southeast  Level Estimated
Tue 09:02:51 PM 27.5186 52.0158 142° Southeast  Level Estimated
Tue 09:10:51 PM 26.7517 52.6879 142° Southeast  Level Estimated
Tue 09:18:51 PM 25.9816 53.3509 142° Southeast  Level Estimated
Tue 09:26:51 PM 25.2086 54.0053 143° Southeast  Level Estimated
Tue 09:34:51 PM 24.4327 54.6514 143° Southeast  Level Estimated

Login

Don't have an account? Register now (free) for customized features, flight alerts, and more!